Time;durP1;ratioP1;P1;durP2;ratioP2;P2;SDS_P1;SDS_P2;PMS_P1;PMS_P2;Temp;Humidity;BMP_temperature;BMP_pressure;BME280_temperature;BME280_humidity;BME280_pressure;Samples;Min_cycle;Max_cycle;Signal;HPM_P1;HPM_P2
2023/01/22 00:01:09;;;;;;;;;23.33;20.67;;;;;1.65;57.69;99529.13;5094057;27;45503;-77
2023/01/22 00:03:36;;;;;;;;;21.33;16.00;;;;;1.61;57.75;99525.63;5096331;27;45541;-77
2023/01/22 00:06:01;;;;;;;;;22.67;20.67;;;;;1.59;57.74;99531.69;5094858;27;45406;-77
2023/01/22 00:08:27;;;;;;;;;22.00;18.00;;;;;1.57;57.78;99536.88;5094496;27;45375;-77
2023/01/22 00:10:54;;;;;;;;;26.00;21.00;;;;;1.57;57.89;99526.50;5092237;27;46426;-77
2023/01/22 00:13:21;;;;;;;;;18.67;18.67;;;;;1.60;58.18;99539.50;5093198;27;45346;-77
2023/01/22 00:15:47;;;;;;;;;25.33;23.67;;;;;1.61;57.76;99543.81;5090250;27;45548;-77
2023/01/22 00:18:13;;;;;;;;;25.33;23.33;;;;;1.56;57.81;99540.34;5095097;27;45487;-78
2023/01/22 00:20:39;;;;;;;;;21.00;20.00;;;;;1.54;57.61;99539.47;5092816;27;46094;-77
2023/01/22 00:23:05;;;;;;;;;23.33;18.00;;;;;1.50;58.01;99542.94;5083679;27;45441;-77
2023/01/22 00:25:30;;;;;;;;;25.00;19.00;;;;;1.50;57.91;99550.75;5095384;27;45595;-77
2023/01/22 00:27:56;;;;;;;;;19.67;19.00;;;;;1.50;58.14;99544.69;5081075;27;45388;-77
2023/01/22 00:30:21;;;;;;;;;26.00;21.33;;;;;1.46;57.84;99537.72;5073422;27;48133;-77
2023/01/22 00:32:46;;;;;;;;;24.33;19.67;;;;;1.38;58.73;99546.34;5095481;27;45459;-77
2023/01/22 00:35:12;;;;;;;;;17.67;17.00;;;;;1.32;59.15;99548.06;5092449;27;45315;-77
2023/01/22 00:37:38;;;;;;;;;17.67;11.67;;;;;1.25;60.22;99556.69;5092327;27;45458;-77
2023/01/22 00:40:04;;;;;;;;;15.00;12.33;;;;;1.20;61.06;99546.28;5095193;27;46719;-77
2023/01/22 00:42:30;;;;;;;;;22.00;19.67;;;;;1.15;61.06;99547.13;5095644;27;45517;-77
2023/01/22 00:44:56;;;;;;;;;23.67;20.67;;;;;1.15;61.25;99566.19;5079902;27;45500;-76
2023/01/22 00:47:21;;;;;;;;;25.67;21.33;;;;;1.11;61.63;99561.81;5095976;27;45607;-76
2023/01/22 00:49:46;;;;;;;;;30.67;29.33;;;;;1.06;62.43;99558.34;5072278;27;45583;-76
2023/01/22 00:52:12;;;;;;;;;33.67;31.33;;;;;1.03;62.53;99566.97;5094140;27;45575;-76
2023/01/22 00:54:37;;;;;;;;;23.00;21.33;;;;;1.00;61.63;99566.97;5091620;27;45405;-76
2023/01/22 00:57:03;;;;;;;;;24.00;16.67;;;;;0.97;62.71;99555.72;5094498;27;45441;-77
2023/01/22 00:59:28;;;;;;;;;20.00;20.00;;;;;0.96;62.47;99569.53;5092696;27;46042;-77
2023/01/22 01:01:54;;;;;;;;;25.33;19.67;;;;;0.93;63.30;99570.38;5091820;27;45528;-77
2023/01/22 01:04:19;;;;;;;;;23.33;19.67;;;;;0.89;63.14;99567.75;5092134;27;45467;-76
2023/01/22 01:06:44;;;;;;;;;28.33;23.67;;;;;0.88;63.16;99553.91;5089681;27;45606;-77
2023/01/22 01:09:10;;;;;;;;;23.33;22.33;;;;;0.90;63.31;99561.72;5092682;27;46013;-77
2023/01/22 01:11:36;;;;;;;;;22.33;20.00;;;;;0.90;63.21;99556.53;5077681;27;45381;-76
2023/01/22 01:14:02;;;;;;;;;20.00;18.33;;;;;0.94;62.61;99563.47;5094644;27;45449;-76
2023/01/22 01:16:30;;;;;;;;;19.00;17.33;;;;;0.96;62.32;99569.53;5092009;27;45572;-77
2023/01/22 01:19:00;;;;;;;;;20.33;19.33;;;;;0.98;61.58;99560.03;5093453;27;46147;-76
2023/01/22 01:21:27;;;;;;;;;21.00;16.33;;;;;0.99;61.54;99565.25;5092577;27;45490;-77
2023/01/22 01:23:54;;;;;;;;;19.67;16.67;;;;;1.00;61.59;99569.56;5077479;27;45396;-77
2023/01/22 01:26:20;;;;;;;;;21.33;19.67;;;;;0.97;62.41;99568.69;5093278;27;45860;-76
2023/01/22 01:28:46;;;;;;;;;24.67;23.67;;;;;0.99;62.21;99578.22;5094810;27;46402;-77
2023/01/22 01:31:14;;;;;;;;;29.00;20.33;;;;;0.98;62.80;99570.41;5074639;27;45485;-77
2023/01/22 01:33:40;;;;;;;;;28.00;22.67;;;;;1.00;62.14;99579.97;5089982;27;45398;-76
2023/01/22 01:36:10;;;;;;;;;20.33;20.33;;;;;1.01;61.41;99578.19;5103618;27;45400;-77
2023/01/22 01:38:36;;;;;;;;;24.00;22.33;;;;;1.02;61.94;99587.72;5090742;27;47498;-77
2023/01/22 01:41:02;;;;;;;;;30.33;26.33;;;;;1.01;63.22;99581.66;5094724;27;45418;-76
2023/01/22 01:43:28;;;;;;;;;29.67;25.33;;;;;1.00;63.56;99612.84;5080560;27;45492;-76
2023/01/22 01:45:55;;;;;;;;;25.67;20.00;;;;;0.97;62.82;99589.44;5085243;27;45419;-76
2023/01/22 01:48:44;;;;;;;;;23.33;23.33;;;;;0.97;63.41;99598.09;5095100;27;46385;-77
2023/01/22 01:51:14;;;;;;;;;19.33;16.33;;;;;0.97;63.71;99605.03;5092063;27;45529;-76
2023/01/22 01:53:42;;;;;;;;;25.33;22.67;;;;;0.94;64.64;99607.59;5083268;27;45352;-76
2023/01/22 01:56:12;;;;;;;;;32.00;24.67;;;;;0.93;64.72;99611.03;5074009;27;45571;-76
2023/01/22 01:58:39;;;;;;;;;19.00;15.33;;;;;0.91;63.84;99617.94;5094243;27;46258;-76
2023/01/22 02:01:10;;;;;;;;;18.67;15.00;;;;;0.89;64.58;99633.50;5072647;27;45364;-76
2023/01/22 02:03:36;;;;;;;;;22.33;17.00;;;;;0.88;64.64;99623.13;5085336;27;45530;-77
2023/01/22 02:06:02;;;;;;;;;19.33;18.00;;;;;0.85;64.53;99618.75;5091696;27;45482;-76
2023/01/22 02:08:28;;;;;;;;;27.33;25.00;;;;;0.86;64.44;99617.91;5093855;27;45502;-76
2023/01/22 02:10:53;;;;;;;;;23.00;21.33;;;;;0.92;63.75;99614.50;5084271;27;45554;-76
2023/01/22 02:13:25;;;;;;;;;27.00;20.00;;;;;0.95;63.41;99617.13;5094376;27;45408;-76
2023/01/22 02:15:51;;;;;;;;;27.00;23.00;;;;;0.97;62.89;99607.63;5083807;27;45496;-76
2023/01/22 02:18:17;;;;;;;;;25.00;24.00;;;;;0.97;62.81;99616.28;5078992;27;47726;-77
2023/01/22 02:21:00;;;;;;;;;19.67;18.00;;;;;1.01;62.04;99607.63;5085975;27;45647;-76
2023/01/22 02:23:27;;;;;;;;;19.00;19.00;;;;;1.03;62.43;99624.09;5094016;27;45468;-77
2023/01/22 02:25:52;;;;;;;;;23.33;20.67;;;;;1.05;62.00;99624.09;5087581;27;45448;-77
2023/01/22 02:28:18;;;;;;;;;27.33;19.33;;;;;1.11;61.99;99618.94;5093830;27;45500;-76
2023/01/22 02:30:44;;;;;;;;;29.33;23.00;;;;;1.13;61.85;99614.63;5105988;27;45843;-77
2023/01/22 02:33:10;;;;;;;;;25.00;22.00;;;;;1.17;61.69;99615.53;5116217;27;45432;-77
2023/01/22 02:35:36;;;;;;;;;22.00;19.00;;;;;1.18;61.67;99623.28;5091184;27;45638;-76
2023/01/22 02:38:02;;;;;;;;;23.00;18.33;;;;;1.20;61.93;99618.97;5097424;27;46208;-76
2023/01/22 02:40:28;;;;;;;;;23.00;18.33;;;;;1.21;61.88;99612.06;5097471;27;45380;-76
2023/01/22 02:42:54;;;;;;;;;27.33;21.67;;;;;1.20;61.68;99603.41;5097799;27;45538;-76
2023/01/22 02:45:20;;;;;;;;;23.00;19.00;;;;;1.18;62.17;99610.31;5092012;27;45648;-77
2023/01/22 02:47:45;;;;;;;;;21.00;18.67;;;;;1.12;62.08;99602.50;5097639;27;46384;-76
2023/01/22 02:50:11;;;;;;;;;23.33;20.33;;;;;1.09;62.33;99607.69;5095208;27;45572;-76
2023/01/22 02:52:36;;;;;;;;;27.00;23.00;;;;;1.08;62.50;99602.47;5097359;27;45576;-77
2023/01/22 02:55:02;;;;;;;;;24.00;22.00;;;;;1.07;62.94;99612.00;5095383;27;45518;-76
2023/01/22 02:57:29;;;;;;;;;23.00;20.00;;;;;1.05;62.58;99611.09;5097768;27;45681;-77
2023/01/22 02:59:55;;;;;;;;;25.00;21.33;;;;;1.08;62.49;99618.06;5086488;27;45470;-76
2023/01/22 03:02:20;;;;;;;;;15.67;14.67;;;;;1.07;61.63;99617.19;5093379;27;45336;-77
2023/01/22 03:04:48;;;;;;;;;20.67;20.33;;;;;1.05;61.28;99621.50;5094285;27;45454;-77
2023/01/22 03:07:17;;;;;;;;;21.67;19.67;;;;;1.03;61.79;99624.09;5084407;27;46261;-76
2023/01/22 03:09:44;;;;;;;;;20.00;17.33;;;;;1.02;61.09;99629.25;5077945;27;45492;-76
2023/01/22 03:12:10;;;;;;;;;17.00;15.00;;;;;1.02;60.84;99630.13;5096951;27;45421;-77
2023/01/22 03:22:48;;;;;;;;;20.67;19.00;;;;;1.04;60.87;99632.75;5096697;27;45518;-76
2023/01/22 03:25:14;;;;;;;;;23.67;17.33;;;;;1.04;60.60;99632.75;5089990;27;45552;-77
2023/01/22 03:28:07;;;;;;;;;20.00;18.33;;;;;1.04;60.57;99636.19;5096620;27;45692;-77
2023/01/22 03:30:24;;;;;;;;;16.00;14.33;;;;;1.05;59.92;99634.47;5089707;27;45475;-76
2023/01/22 03:32:50;;;;;;;;;17.33;16.33;;;;;1.09;60.30;99635.38;5081784;27;45323;-76
2023/01/22 03:35:15;;;;;;;;;20.67;15.00;;;;;1.09;60.04;99633.66;5093773;27;45425;-76
2023/01/22 03:37:41;;;;;;;;;19.33;15.67;;;;;1.09;59.91;99636.25;5090474;27;48537;-76
2023/01/22 03:40:08;;;;;;;;;16.67;14.33;;;;;1.13;59.99;99637.13;5092773;27;45415;-77
2023/01/22 03:42:33;;;;;;;;;14.33;13.00;;;;;1.14;60.13;99639.75;5094880;27;45478;-76
2023/01/22 03:44:58;;;;;;;;;23.00;20.33;;;;;1.16;59.82;99648.41;5094091;27;45547;-76
2023/01/22 03:47:24;;;;;;;;;17.00;17.00;;;;;1.17;60.16;99644.97;5096577;27;45452;-77
2023/01/22 03:49:49;;;;;;;;;15.67;15.67;;;;;1.15;61.26;99643.22;5096751;27;45297;-76
2023/01/22 03:52:15;;;;;;;;;22.00;18.33;;;;;1.15;60.18;99649.28;5096716;27;45724;-77
2023/01/22 03:54:40;;;;;;;;;24.33;16.33;;;;;1.15;59.62;99643.22;5091661;27;45341;-76
2023/01/22 03:57:05;;;;;;;;;17.33;14.67;;;;;1.12;60.23;99644.06;5095294;27;46510;-77
2023/01/22 03:59:31;;;;;;;;;18.67;15.33;;;;;1.13;59.88;99639.72;5095336;27;45397;-77
2023/01/22 04:01:56;;;;;;;;;20.00;18.67;;;;;1.12;60.08;99636.25;5078155;27;46170;-76
2023/01/22 04:04:21;;;;;;;;;13.33;13.33;;;;;1.05;59.58;99643.13;5094536;27;45380;-76
2023/01/22 04:06:47;;;;;;;;;20.00;16.67;;;;;1.00;60.04;99646.59;5092317;27;45471;-77
2023/01/22 04:09:13;;;;;;;;;19.00;14.00;;;;;0.93;60.30;99645.66;5093751;27;45554;-76
2023/01/22 04:11:38;;;;;;;;;19.33;16.00;;;;;0.91;60.29;99649.09;5095080;27;45575;-77
2023/01/22 04:14:03;;;;;;;;;17.00;17.00;;;;;0.90;60.39;99649.94;5073734;27;45405;-76
2023/01/22 04:16:29;;;;;;;;;17.33;14.67;;;;;0.89;60.35;99646.50;5094687;27;45422;-76
2023/01/22 04:18:54;;;;;;;;;21.33;16.00;;;;;0.85;60.78;99641.25;5094180;27;45498;-77
2023/01/22 04:21:20;;;;;;;;;12.67;10.67;;;;;0.82;60.79;99652.50;5090499;27;45466;-76
2023/01/22 04:23:45;;;;;;;;;15.00;15.00;;;;;0.79;60.70;99643.81;5095293;27;45397;-76
2023/01/22 04:26:11;;;;;;;;;20.33;17.33;;;;;0.77;60.45;99648.13;5095503;27;45479;-77
2023/01/22 04:28:36;;;;;;;;;18.33;18.00;;;;;0.74;61.09;99654.16;5095818;27;45465;-77
2023/01/22 04:31:03;;;;;;;;;26.00;18.00;;;;;0.75;61.15;99657.63;5074102;27;45705;-76
2023/01/22 04:33:28;;;;;;;;;22.67;18.67;;;;;0.69;60.61;99656.72;5083831;27;45427;-76
2023/01/22 04:35:54;;;;;;;;;17.33;12.00;;;;;0.70;61.56;99657.59;5092572;27;45655;-76
2023/01/22 04:38:20;;;;;;;;;15.33;14.00;;;;;0.64;61.47;99650.63;5095398;27;45452;-77
2023/01/22 04:40:46;;;;;;;;;20.67;17.00;;;;;0.67;62.13;99661.03;5091314;27;45547;-76
2023/01/22 04:43:11;;;;;;;;;28.00;19.00;;;;;0.69;61.77;99663.63;5096213;27;45363;-76
2023/01/22 04:45:36;;;;;;;;;24.33;17.00;;;;;0.67;61.96;99657.59;5094563;27;46442;-77
2023/01/22 04:48:02;;;;;;;;;19.67;17.67;;;;;0.64;62.19;99661.03;5095525;27;45472;-76
2023/01/22 04:50:31;;;;;;;;;22.67;19.00;;;;;0.65;62.06;99667.06;5093669;27;45516;-77
2023/01/22 04:52:57;;;;;;;;;18.00;16.67;;;;;0.62;63.11;99667.91;5095174;27;45722;-76
2023/01/22 04:55:24;;;;;;;;;19.00;16.67;;;;;0.61;62.85;99667.91;5090848;27;46588;-77
2023/01/22 04:57:53;;;;;;;;;19.33;19.00;;;;;0.59;63.04;99664.41;5100220;27;45537;-77
2023/01/22 05:00:18;;;;;;;;;22.33;19.67;;;;;0.51;63.22;99666.06;5100697;27;45450;-76
2023/01/22 05:02:43;;;;;;;;;18.00;16.33;;;;;0.44;63.50;99665.16;5095338;27;45620;-76
2023/01/22 05:05:09;;;;;;;;;19.33;15.67;;;;;0.44;63.67;99666.88;5091538;27;46460;-77
2023/01/22 05:07:34;;;;;;;;;15.67;11.33;;;;;0.42;63.94;99669.47;5095347;27;45539;-77
2023/01/22 05:10:00;;;;;;;;;23.67;19.00;;;;;0.38;63.86;99662.50;5091434;27;45493;-77
2023/01/22 05:12:26;;;;;;;;;18.33;16.33;;;;;0.31;64.23;99665.91;5090746;27;45553;-76
2023/01/22 05:14:51;;;;;;;;;22.00;17.33;;;;;0.29;64.80;99676.25;5091337;27;46951;-76
2023/01/22 05:17:17;;;;;;;;;24.00;18.00;;;;;0.27;65.06;99667.59;5095276;27;45439;-76
2023/01/22 05:19:42;;;;;;;;;23.67;21.67;;;;;0.26;64.84;99660.66;5094228;27;45369;-76
2023/01/22 05:22:08;;;;;;;;;20.67;16.33;;;;;0.22;65.45;99664.06;5094815;27;45578;-76
2023/01/22 05:24:34;;;;;;;;;18.00;16.33;;;;;0.21;65.69;99664.06;5091071;27;46054;-77
2023/01/22 05:26:59;;;;;;;;;22.33;19.00;;;;;0.22;66.00;99673.56;5093063;27;45418;-77
2023/01/22 05:29:25;;;;;;;;;20.33;16.00;;;;;0.23;66.21;99664.94;5096756;27;45422;-76
2023/01/22 05:31:53;;;;;;;;;24.33;17.67;;;;;0.20;66.10;99663.19;5095225;27;45528;-77
2023/01/22 05:34:18;;;;;;;;;15.33;12.67;;;;;0.18;66.42;99680.44;5091828;27;46063;-77
2023/01/22 05:36:44;;;;;;;;;19.67;18.00;;;;;0.16;66.12;99668.34;5073295;27;45623;-77
2023/01/22 05:39:09;;;;;;;;;18.33;12.00;;;;;0.14;66.38;99670.94;5098036;27;45392;-77
2023/01/22 05:41:35;;;;;;;;;28.33;19.33;;;;;0.13;66.72;99670.91;5094788;27;45473;-77
2023/01/22 05:44:01;;;;;;;;;26.33;19.00;;;;;0.12;66.24;99667.44;5094927;27;46231;-77
2023/01/22 05:46:27;;;;;;;;;22.67;21.00;;;;;0.13;67.27;99676.97;5089669;27;45357;-76
2023/01/22 05:48:52;;;;;;;;;22.00;19.00;;;;;0.14;66.71;99673.53;5100178;27;45410;-77
2023/01/22 05:51:18;;;;;;;;;13.00;11.00;;;;;0.14;66.55;99683.03;5076138;27;45662;-76
2023/01/22 05:53:44;;;;;;;;;22.67;21.33;;;;;0.12;67.12;99687.31;5094699;27;46365;-77
2023/01/22 05:56:10;;;;;;;;;20.67;19.67;;;;;0.10;67.17;99679.50;5108474;27;45541;-77
2023/01/22 05:58:35;;;;;;;;;26.33;21.00;;;;;0.08;67.21;99678.63;5094871;27;45349;-77
2023/01/22 06:01:00;;;;;;;;;21.67;19.00;;;;;0.06;66.75;99682.91;5086643;27;45751;-76
2023/01/22 06:03:26;;;;;;;;;18.00;18.00;;;;;0.03;66.83;99695.84;5094596;27;46406;-77
2023/01/22 06:05:59;;;;;;;;;16.33;14.67;;;;;-0.01;66.98;99679.41;5093379;27;45551;-77
2023/01/22 06:08:25;;;;;;;;;18.67;17.67;;;;;-0.01;67.29;99679.41;5099495;27;45378;-77
2023/01/22 06:10:58;;;;;;;;;18.67;18.67;;;;;-0.01;67.31;99678.53;5090531;27;45621;-77
2023/01/22 06:13:23;;;;;;;;;20.67;15.67;;;;;0.00;67.45;99690.66;5094383;27;46385;-76
2023/01/22 06:15:49;;;;;;;;;19.67;17.67;;;;;0.00;67.44;99694.06;5082644;27;45360;-77
2023/01/22 06:18:14;;;;;;;;;21.33;16.33;;;;;-0.03;67.56;99693.19;5094189;27;45408;-77
2023/01/22 06:20:39;;;;;;;;;22.33;18.00;;;;;-0.05;68.06;99694.91;5093037;27;45510;-77
2023/01/22 06:23:06;;;;;;;;;17.67;15.33;;;;;-0.08;68.00;99687.09;5085969;27;46205;-77
2023/01/22 06:25:32;;;;;;;;;15.00;13.33;;;;;-0.06;68.39;99704.41;5067763;27;45636;-77
2023/01/22 06:27:57;;;;;;;;;24.67;20.00;;;;;-0.05;68.46;99703.53;5076633;27;45513;-77
2023/01/22 06:30:22;;;;;;;;;28.00;19.00;;;;;-0.04;68.54;99712.19;5088873;27;45577;-77
2023/01/22 06:32:51;;;;;;;;;23.00;19.00;;;;;-0.02;67.92;99708.78;5093650;27;46162;-77
2023/01/22 06:35:17;;;;;;;;;23.00;18.00;;;;;-0.06;68.49;99699.22;5093545;27;45581;-77
2023/01/22 06:37:42;;;;;;;;;15.00;9.00;;;;;-0.08;68.69;99708.69;5091640;27;45470;-77
2023/01/22 06:40:08;;;;;;;;;26.33;21.00;;;;;-0.10;68.52;99712.09;5088515;27;46188;-77
2023/01/22 06:42:36;;;;;;;;;19.00;19.00;;;;;-0.10;68.73;99717.28;5075411;27;48359;-77
2023/01/22 06:45:01;;;;;;;;;19.00;16.67;;;;;-0.14;69.03;99718.09;5090461;27;45483;-77
2023/01/22 06:47:26;;;;;;;;;16.67;16.33;;;;;-0.13;69.10;99712.06;5093827;27;45472;-77
2023/01/22 06:49:52;;;;;;;;;21.33;18.67;;;;;-0.12;69.04;99719.84;5090655;27;45413;-77
2023/01/22 06:52:17;;;;;;;;;25.00;20.67;;;;;-0.10;69.31;99720.75;5093638;27;46328;-77
2023/01/22 06:54:43;;;;;;;;;22.00;19.00;;;;;-0.07;69.19;99717.34;5090484;27;45700;-77
2023/01/22 06:57:08;;;;;;;;;25.33;20.67;;;;;-0.07;69.09;99720.78;5091711;27;46101;-77
2023/01/22 06:59:33;;;;;;;;;23.33;20.00;;;;;-0.07;68.68;99723.38;5073817;27;45549;-77
2023/01/22 07:01:59;;;;;;;;;29.33;23.00;;;;;-0.05;69.05;99724.28;5093282;27;46286;-78
2023/01/22 07:04:24;;;;;;;;;20.33;19.00;;;;;-0.06;69.30;99725.13;5090877;27;45551;-77
2023/01/22 07:06:49;;;;;;;;;25.33;22.00;;;;;-0.04;68.91;99730.34;5088546;27;45451;-77
2023/01/22 07:09:15;;;;;;;;;29.33;25.33;;;;;-0.03;69.14;99726.88;5108054;27;45578;-77
2023/01/22 07:11:40;;;;;;;;;25.67;22.67;;;;;-0.04;69.07;99733.78;5093394;27;45578;-78
2023/01/22 07:14:06;;;;;;;;;22.67;18.00;;;;;-0.04;69.64;99728.59;5092953;27;45593;-77
2023/01/22 07:16:31;;;;;;;;;21.00;19.00;;;;;0.00;69.57;99729.53;5081718;27;45412;-77
2023/01/22 07:18:56;;;;;;;;;20.33;16.33;;;;;0.00;69.05;99730.34;5097039;27;45267;-77
2023/01/22 07:21:22;;;;;;;;;22.00;22.00;;;;;-0.01;69.22;99736.44;5096297;27;45603;-77
2023/01/22 07:23:47;;;;;;;;;1.00;0.00;;;;;0.00;69.04;99737.31;5097036;27;45388;-77
2023/01/22 07:26:13;;;;;;;;;22.33;13.00;;;;;0.03;68.64;99739.03;5089706;27;45439;-77
2023/01/22 07:28:39;;;;;;;;;23.33;20.67;;;;;0.10;68.87;99746.03;5084540;27;45559;-77
2023/01/22 07:31:12;;;;;;;;;30.00;24.00;;;;;0.13;68.84;99751.25;5068008;28;45719;-78
2023/01/22 07:33:38;;;;;;;;;20.33;17.33;;;;;0.14;68.60;99759.06;5075961;27;45397;-77
2023/01/22 07:36:04;;;;;;;;;21.00;18.33;;;;;0.14;68.71;99753.88;5086453;27;45367;-78
2023/01/22 07:38:29;;;;;;;;;22.67;19.00;;;;;0.16;69.21;99752.19;5071174;27;45462;-77
2023/01/22 07:41:05;;;;;;;;;24.33;21.67;;;;;0.19;69.53;99766.88;5072390;27;46466;-77
2023/01/22 07:43:32;;;;;;;;;29.00;23.67;;;;;0.19;69.31;99764.28;5076109;27;45382;-77
2023/01/22 07:46:02;;;;;;;;;24.33;18.33;;;;;0.13;69.76;99759.91;5069827;27;45464;-78
2023/01/22 07:48:28;;;;;;;;;24.67;22.33;;;;;0.10;70.37;99754.69;5072599;27;45466;-78
2023/01/22 07:50:53;;;;;;;;;23.00;22.33;;;;;0.12;70.47;99757.31;5074023;27;45329;-77
2023/01/22 07:53:18;;;;;;;;;21.00;19.33;;;;;0.15;69.95;99772.91;5073835;28;45428;-78
2023/01/22 07:55:44;;;;;;;;;18.33;14.00;;;;;0.14;69.40;99772.03;5072191;27;45879;-78
2023/01/22 07:58:09;;;;;;;;;24.67;19.00;;;;;0.15;69.63;99765.13;5076050;27;45535;-77
2023/01/22 08:00:35;;;;;;;;;22.67;21.33;;;;;0.15;69.33;99768.59;5087446;27;48589;-78
2023/01/22 08:03:04;;;;;;;;;23.67;21.00;;;;;0.16;69.46;99767.72;5074794;28;45325;-78
2023/01/22 08:05:29;;;;;;;;;25.00;18.00;;;;;0.15;68.89;99771.19;5071343;27;45519;-77
2023/01/22 08:07:54;;;;;;;;;27.00;22.67;;;;;0.16;69.21;99772.91;5073630;27;45464;-77
2023/01/22 08:10:20;;;;;;;;;22.00;19.00;;;;;0.18;69.26;99775.50;5066836;27;46415;-77
2023/01/22 08:12:45;;;;;;;;;20.33;17.67;;;;;0.19;68.22;99775.53;5072829;27;45468;-77
2023/01/22 08:15:11;;;;;;;;;18.00;15.00;;;;;0.22;67.63;99779.88;5074078;27;45486;-77
2023/01/22 08:17:38;;;;;;;;;19.33;14.67;;;;;0.22;67.55;99780.75;5073535;27;45294;-77
2023/01/22 08:20:05;;;;;;;;;15.33;14.67;;;;;0.25;67.88;99788.56;5072531;27;46958;-78
2023/01/22 08:22:30;;;;;;;;;16.33;12.67;;;;;0.28;67.07;99785.16;5074943;27;45349;-78
2023/01/22 08:24:55;;;;;;;;;18.33;13.33;;;;;0.32;66.06;99794.72;5069040;27;45409;-77
2023/01/22 08:27:21;;;;;;;;;15.00;11.67;;;;;0.32;65.57;99786.94;5073192;28;45546;-79
2023/01/22 08:29:48;;;;;;;;;16.00;13.33;;;;;0.34;65.34;99791.25;5080710;27;46226;-78
2023/01/22 08:32:15;;;;;;;;;8.67;8.67;;;;;0.34;64.93;99796.44;5094661;27;45356;-78
2023/01/22 08:34:41;;;;;;;;;24.00;15.00;;;;;0.32;64.91;99790.41;5092808;27;45525;-76
2023/01/22 08:37:06;;;;;;;;;17.33;12.00;;;;;0.30;64.84;99789.50;5094517;27;45523;-76
2023/01/22 08:39:32;;;;;;;;;16.67;11.00;;;;;0.31;64.29;99796.44;5084910;27;47532;-76
2023/01/22 08:41:57;;;;;;;;;13.33;11.00;;;;;0.30;64.47;99802.47;5094908;27;45486;-76
2023/01/22 08:44:24;;;;;;;;;16.67;12.00;;;;;0.30;64.88;99810.25;5091048;27;45484;-76
2023/01/22 08:46:50;;;;;;;;;17.33;13.33;;;;;0.34;64.50;99800.75;5075013;27;45428;-76
2023/01/22 08:49:17;;;;;;;;;19.33;15.00;;;;;0.32;64.39;99798.16;5091911;27;45503;-76
2023/01/22 08:51:42;;;;;;;;;13.33;13.00;;;;;0.34;64.66;99819.78;5093550;27;45517;-76
2023/01/22 08:54:08;;;;;;;;;35.00;30.33;;;;;0.35;64.64;99807.69;5083308;27;45497;-76
2023/01/22 08:56:33;;;;;;;;;15.33;15.33;;;;;0.32;65.03;99808.53;5094132;27;45423;-77
2023/01/22 08:59:01;;;;;;;;;26.33;20.67;;;;;0.33;65.22;99812.00;5094853;27;45575;-77
2023/01/22 09:01:26;;;;;;;;;11.33;11.33;;;;;0.32;65.19;99807.69;5094224;27;45701;-77
2023/01/22 09:03:52;;;;;;;;;22.33;19.33;;;;;0.35;65.81;99805.97;5094739;27;45347;-77
2023/01/22 09:06:17;;;;;;;;;18.33;18.33;;;;;0.36;65.88;99809.44;5090667;27;45417;-77
2023/01/22 09:08:42;;;;;;;;;25.00;20.00;;;;;0.38;65.77;99818.09;5094763;27;46037;-77
2023/01/22 09:11:08;;;;;;;;;16.00;14.67;;;;;0.39;65.56;99814.66;5090269;27;45361;-76
2023/01/22 09:13:34;;;;;;;;;24.33;20.33;;;;;0.37;65.68;99813.75;5076654;27;45543;-76
2023/01/22 09:15:59;;;;;;;;;20.67;19.00;;;;;0.38;66.26;99807.72;5074628;27;45572;-76
2023/01/22 09:18:24;;;;;;;;;23.33;18.00;;;;;0.42;66.41;99814.69;5094305;27;45950;-76
2023/01/22 09:20:50;;;;;;;;;16.00;15.00;;;;;0.46;65.92;99819.06;5088382;27;45380;-77
2023/01/22 09:23:16;;;;;;;;;21.67;17.00;;;;;0.49;66.15;99823.44;5090041;27;45247;-77
2023/01/22 09:25:42;;;;;;;;;19.67;15.33;;;;;0.51;66.20;99822.56;5089796;27;45550;-77
2023/01/22 09:28:10;;;;;;;;;23.33;19.00;;;;;0.55;66.39;99826.94;5094716;27;46140;-77
2023/01/22 09:30:38;;;;;;;;;20.33;17.33;;;;;0.60;66.48;99832.19;5081202;27;45550;-77
2023/01/22 09:33:03;;;;;;;;;26.00;22.33;;;;;0.65;66.49;99828.81;5051606;28;45464;-76
2023/01/22 09:35:29;;;;;;;;;22.67;17.33;;;;;0.68;66.19;99833.13;5064676;28;45547;-76
2023/01/22 09:37:54;;;;;;;;;21.00;15.33;;;;;0.75;66.42;99844.47;5050284;28;46661;-76
2023/01/22 09:40:43;;;;;;;;;26.33;22.33;;;;;0.77;65.70;99854.00;5044769;28;45380;-76
2023/01/22 09:43:24;;;;;;;;;16.33;16.00;;;;;0.79;65.53;99852.31;5053505;28;45512;-76
2023/01/22 09:45:53;;;;;;;;;16.33;15.33;;;;;0.80;64.60;99848.84;5043342;28;45603;-76
2023/01/22 09:48:19;;;;;;;;;12.00;12.00;;;;;0.79;64.42;99849.72;5053028;28;45821;-76
2023/01/22 09:50:45;;;;;;;;;20.00;18.00;;;;;0.83;64.54;99866.19;5048519;28;45479;-75
2023/01/22 09:53:15;;;;;;;;;21.33;19.00;;;;;0.85;64.77;99849.75;5052397;28;45554;-76
2023/01/22 09:55:50;;;;;;;;;26.33;23.00;;;;;0.90;64.93;99847.22;5048346;28;45491;-75
2023/01/22 09:58:20;;;;;;;;;26.33;22.33;;;;;0.91;64.72;99855.00;5053386;28;45568;-77
2023/01/22 10:01:03;;;;;;;;;20.00;18.33;;;;;0.99;64.47;99855.09;5049492;28;45560;-75
2023/01/22 10:03:51;;;;;;;;;26.67;23.67;;;;;1.02;64.01;99860.31;5085774;27;45427;-74
2023/01/22 10:06:23;;;;;;;;;20.33;16.33;;;;;1.05;63.76;99856.03;5041667;28;45437;-75
2023/01/22 10:08:55;;;;;;;;;20.00;15.33;;;;;1.12;63.53;99853.50;5066479;27;45603;-75
2023/01/22 10:11:21;;;;;;;;;13.67;12.67;;;;;1.16;62.90;99850.94;5048810;28;45515;-75
2023/01/22 10:13:50;;;;;;;;;23.00;19.00;;;;;1.20;63.16;99855.28;5052125;28;45397;-75
2023/01/22 10:16:15;;;;;;;;;23.00;18.00;;;;;1.23;63.05;99854.44;5051059;28;45546;-75
2023/01/22 10:18:47;;;;;;;;;22.33;19.67;;;;;1.25;62.94;99844.94;5050381;28;45892;-75
2023/01/22 10:21:23;;;;;;;;;16.67;16.67;;;;;1.29;62.44;99854.53;5049063;28;45463;-75
2023/01/22 10:23:49;;;;;;;;;17.33;16.67;;;;;1.30;62.41;99861.47;5051830;28;45448;-76
2023/01/22 10:26:23;;;;;;;;;17.67;14.33;;;;;1.29;61.87;99859.72;5041597;28;45617;-76
2023/01/22 10:28:53;;;;;;;;;21.00;20.00;;;;;1.33;62.24;99856.28;5087339;27;48357;-76
2023/01/22 10:31:22;;;;;;;;;21.33;19.00;;;;;1.34;62.17;99856.28;5092578;27;45499;-75
2023/01/22 10:33:55;;;;;;;;;21.33;16.00;;;;;1.37;62.07;99863.22;5093519;27;45498;-76
2023/01/22 10:36:20;;;;;;;;;24.00;18.67;;;;;1.40;61.93;99864.13;5088149;27;45571;-75
2023/01/22 10:38:46;;;;;;;;;22.00;19.00;;;;;1.40;62.17;99864.13;5088909;27;45530;-76
2023/01/22 10:41:20;;;;;;;;;17.00;17.00;;;;;1.44;61.37;99857.25;5078281;27;45631;-75
2023/01/22 10:43:47;;;;;;;;;24.33;18.33;;;;;1.43;61.35;99858.09;5088670;27;45365;-74
2023/01/22 10:46:23;;;;;;;;;24.33;19.67;;;;;1.47;61.51;99859.88;5091467;27;45419;-76
2023/01/22 10:49:04;;;;;;;;;30.33;21.67;;;;;1.48;61.24;99864.22;5090160;27;46169;-76
2023/01/22 10:51:35;;;;;;;;;27.33;20.33;;;;;1.48;60.52;99864.22;5081835;27;45445;-76
2023/01/22 10:54:01;;;;;;;;;20.00;17.67;;;;;1.45;61.13;99864.19;5095762;27;45426;-76
2023/01/22 10:56:31;;;;;;;;;20.00;16.00;;;;;1.46;61.21;99865.94;5089844;27;45440;-76
2023/01/22 10:58:59;;;;;;;;;23.00;18.00;;;;;1.44;61.35;99870.22;5106813;27;46726;-76
2023/01/22 11:01:40;;;;;;;;;15.67;13.67;;;;;1.48;60.70;99866.81;5090324;27;45458;-76
2023/01/22 11:04:23;;;;;;;;;12.33;9.00;;;;;1.52;60.90;99865.09;5092036;27;45438;-76
2023/01/22 11:06:58;;;;;;;;;19.67;16.33;;;;;1.58;61.20;99865.16;5094030;27;45443;-76
2023/01/22 11:09:31;;;;;;;;;19.00;16.67;;;;;1.71;60.52;99864.38;5093291;27;45570;-76
2023/01/22 11:12:14;;;;;;;;;21.00;16.33;;;;;1.80;59.98;99866.19;5095896;27;45493;-76
2023/01/22 11:14:40;;;;;;;;;14.33;12.00;;;;;1.81;59.97;99850.59;5093573;27;45500;-76
2023/01/22 11:17:16;;;;;;;;;16.67;12.67;;;;;1.83;59.86;99863.59;5087274;27;45518;-76
2023/01/22 11:19:53;;;;;;;;;16.67;16.00;;;;;1.82;59.60;99854.06;5093340;27;46234;-75
2023/01/22 11:22:32;;;;;;;;;25.33;18.67;;;;;1.83;59.56;99846.28;5095656;27;45416;-76
2023/01/22 11:24:58;;;;;;;;;21.33;17.67;;;;;1.83;60.12;99859.28;5078692;27;45470;-77
2023/01/22 11:27:23;;;;;;;;;17.33;17.33;;;;;1.86;59.99;99848.88;5095806;27;45420;-76
2023/01/22 11:30:07;;;;;;;;;23.00;20.33;;;;;1.89;59.62;99841.09;5081844;27;47589;-74
2023/01/22 11:32:47;;;;;;;;;14.00;14.00;;;;;1.92;60.18;99845.47;5095677;27;45431;-76